This is the latest recevied weather packets stored in our database for station/object SQ6RR-12. If no packets are shown the sender has not sent any weather packets the latest 1 day(s).
| Time | Temp. | Humidity | Pressure | Rain* | Wind** | Luminosity | Snow |
|---|---|---|---|---|---|---|---|
| 1777981971 | 27.78° C | 30% | 1007.9 hPa | 0 mm | 0 m/s | - | - |
| 1777981694 | 27.78° C | 29% | 1008 hPa | 0 mm | 0 m/s | - | - |
| 1777981442 | 28.89° C | 29% | 1008 hPa | 0 mm | 0 m/s | - | - |
| 1777981180 | 28.33° C | 29% | 1008.1 hPa | 0 mm | 0 m/s | - | - |
| 1777980907 | 28.33° C | 29% | 1008.1 hPa | 0 mm | 0 m/s | - | - |
| 1777980627 | 27.78° C | 31% | 1008.1 hPa | 0 mm | 0 m/s | - | - |
| 1777980371 | 27.22° C | 32% | 1008.2 hPa | 0 mm | 0 m/s | - | - |
| 1777980087 | 27.78° C | 30% | 1008.2 hPa | 0 mm | 0 m/s | - | - |
| 1777979832 | 26.67° C | 34% | 1008.3 hPa | 0 mm | 0 m/s | - | - |
| 1777979565 | 26.11° C | 33% | 1008.2 hPa | 0 mm | 0 m/s | - | - |
| 1777979296 | 26.11° C | 32% | 1008.3 hPa | 0 mm | 0 m/s | - | - |
| 1777979027 | 26.11° C | 32% | 1008.4 hPa | 0 mm | 0 m/s | - | - |
| 1777978752 | 25.56° C | 34% | 1008.4 hPa | 0 mm | 0 m/s | - | - |
| 1777978492 | 25.56° C | 32% | 1008.4 hPa | 0 mm | 0 m/s | - | - |
| 1777978221 | 26.11° C | 33% | 1008.4 hPa | 0 mm | 0 m/s | - | - |
| 1777977939 | 26.11° C | 33% | 1008.4 hPa | 0 mm | 0 m/s | - | - |
| 1777977672 | 26.67° C | 33% | 1008.5 hPa | 0 mm | 0 m/s | - | - |
| 1777977411 | 26.11° C | 34% | 1008.5 hPa | 0 mm | 0 m/s | - | - |
| 1777977124 | 26.11° C | 34% | 1008.5 hPa | 0 mm | 0 m/s | - | - |
| 1777976847 | 26.67° C | 33% | 1008.5 hPa | 0 mm | 0 m/s | - | - |
| 1777976567 | 26.67° C | 34% | 1008.5 hPa | 0 mm | 0 m/s | - | - |
| 1777976297 | 26.11° C | 36% | 1008.6 hPa | 0 mm | 0 m/s | - | - |
| 1777976036 | 25.56° C | 35% | 1008.6 hPa | 0 mm | 0 m/s | - | - |
| 1777975761 | 25.56° C | 34% | 1008.6 hPa | 0 mm | 0 m/s | - | - |
| 1777975494 | 25.56° C | 35% | 1008.6 hPa | 0 mm | 0 m/s | - | - |
* Rain latest hour (hover to see other rain measurements)
** Current wind speed in m/s (hover to see current wind gust speed)